createdAt,value
2023-01-05T00:02:06.536Z,4.78
2023-01-05T00:07:09.361Z,4.40
2023-01-05T00:12:30.806Z,4.75
2023-01-05T00:17:51.213Z,4.05
2023-01-05T00:22:55.484Z,2.97
2023-01-05T00:27:59.646Z,4.95
2023-01-05T00:33:02.522Z,4.32
2023-01-05T00:38:08.107Z,4.25
2023-01-05T00:43:12.211Z,3.88
2023-01-05T00:48:14.966Z,4.47
2023-01-05T00:53:18.163Z,2.28
2023-01-05T00:58:22.495Z,2.47
2023-01-05T01:03:25.366Z,2.92
2023-01-05T01:08:28.181Z,2.47
2023-01-05T01:13:32.331Z,3.63
2023-01-05T01:18:35.322Z,3.47
2023-01-05T01:23:38.637Z,3.55
2023-01-05T01:28:43.365Z,3.28
2023-01-05T01:33:46.218Z,4.00
2023-01-05T01:38:49.047Z,3.90
2023-01-05T01:43:54.719Z,4.28
2023-01-05T01:49:02.981Z,3.85
2023-01-05T01:54:09.379Z,2.92
2023-01-05T01:59:14.781Z,3.83
2023-01-05T02:04:17.746Z,4.85
2023-01-05T02:09:21.208Z,3.85
2023-01-05T02:14:34.801Z,3.53
2023-01-05T02:20:07.354Z,4.60
2023-01-05T02:25:32.323Z,5.15
2023-01-05T02:31:04.072Z,3.97
2023-01-05T02:36:24.969Z,3.67
2023-01-05T02:41:36.190Z,3.90
2023-01-05T02:46:41.493Z,3.92
2023-01-05T02:51:50.333Z,4.80
2023-01-05T02:56:59.090Z,3.42
2023-01-05T03:02:07.761Z,4.47
2023-01-05T03:07:14.178Z,3.67
2023-01-05T03:12:42.524Z,4.68
2023-01-05T03:17:51.000Z,5.38
2023-01-05T03:23:14.970Z,5.57
2023-01-05T03:28:39.892Z,4.50
2023-01-05T03:34:09.376Z,5.38
2023-01-05T03:39:16.514Z,5.15
2023-01-05T03:44:23.231Z,5.15
2023-01-05T03:49:27.734Z,4.22
2023-01-05T03:54:30.812Z,5.53
2023-01-05T03:59:33.704Z,4.68
2023-01-05T04:04:38.343Z,4.60
2023-01-05T04:09:44.660Z,5.72
2023-01-05T04:14:47.593Z,4.40
2023-01-05T04:19:52.295Z,6.22
2023-01-05T04:24:56.606Z,4.15
2023-01-05T04:29:59.612Z,4.20
2023-01-05T04:35:10.919Z,4.88
2023-01-05T04:40:15.782Z,4.30
2023-01-05T04:45:24.638Z,5.50
2023-01-05T04:50:29.626Z,4.45
2023-01-05T04:55:33.920Z,3.75
2023-01-05T05:00:37.985Z,5.18
2023-01-05T05:05:43.948Z,4.50
2023-01-05T05:10:49.011Z,7.18
2023-01-05T05:15:51.982Z,4.88
2023-01-05T05:20:56.929Z,5.32
2023-01-05T05:26:04.978Z,5.38
2023-01-05T05:31:07.989Z,4.85
2023-01-05T05:36:12.330Z,5.13
2023-01-05T05:41:15.168Z,4.03
2023-01-05T05:46:17.992Z,5.88
2023-01-05T05:51:22.140Z,6.28
2023-01-05T05:56:24.858Z,6.00
2023-01-05T06:01:27.812Z,4.75
2023-01-05T06:06:32.079Z,5.28
2023-01-05T06:11:34.897Z,4.00
2023-01-05T06:16:37.846Z,5.25
2023-01-05T06:21:41.999Z,5.20
2023-01-05T06:26:45.566Z,5.45
2023-01-05T06:31:48.373Z,5.35
2023-01-05T06:36:57.849Z,9.07
2023-01-05T06:42:03.407Z,4.25
2023-01-05T06:47:06.300Z,4.82
2023-01-05T06:52:15.939Z,5.70
2023-01-05T06:57:19.224Z,4.13
2023-01-05T07:02:21.987Z,5.72
2023-01-05T07:07:26.488Z,5.47
2023-01-05T07:12:29.352Z,5.60
2023-01-05T07:17:32.838Z,5.70
2023-01-05T07:22:37.085Z,4.93
2023-01-05T07:27:39.897Z,6.57
2023-01-05T07:32:42.698Z,6.55
2023-01-05T07:37:46.931Z,6.20
2023-01-05T07:42:51.936Z,5.35
2023-01-05T07:47:54.868Z,4.72
2023-01-05T07:52:59.677Z,4.57
2023-01-05T07:58:02.532Z,5.05
2023-01-05T08:03:05.407Z,3.05
2023-01-05T08:08:09.674Z,3.78
2023-01-05T08:13:30.437Z,6.25
2023-01-05T08:18:33.256Z,4.40
2023-01-05T08:23:38.792Z,2.60
2023-01-05T08:28:41.736Z,3.72
2023-01-05T08:33:45.062Z,4.30
2023-01-05T08:38:52.052Z,5.65
2023-01-05T08:43:56.085Z,5.25
2023-01-05T08:49:00.615Z,5.28
2023-01-05T08:54:05.136Z,5.25
2023-01-05T08:59:08.532Z,5.45
2023-01-05T09:04:11.300Z,5.20
2023-01-05T09:09:15.466Z,4.78
2023-01-05T09:14:18.808Z,3.70
2023-01-05T09:19:21.666Z,5.07
2023-01-05T09:24:26.299Z,5.80
2023-01-05T09:29:29.041Z,5.35
2023-01-05T09:34:31.880Z,6.32
2023-01-05T09:39:35.986Z,5.15
2023-01-05T09:44:42.780Z,6.75
2023-01-05T09:49:47.078Z,3.88
2023-01-05T09:54:51.224Z,4.75
2023-01-05T09:59:58.632Z,5.43
2023-01-05T10:05:05.312Z,4.40
2023-01-05T10:10:29.862Z,5.53
2023-01-05T10:15:43.289Z,4.63
2023-01-05T10:21:07.442Z,5.15
2023-01-05T10:26:18.634Z,5.47
2023-01-05T10:31:25.037Z,8.82
2023-01-05T10:42:17.268Z,6.45
2023-01-05T10:47:22.483Z,6.20
2023-01-05T10:52:25.489Z,7.90
2023-01-05T10:57:36.963Z,4.32
2023-01-05T11:02:42.150Z,6.77
2023-01-05T11:07:49.062Z,4.72
2023-01-05T11:13:04.449Z,4.18
2023-01-05T11:18:08.183Z,4.55
2023-01-05T11:23:35.368Z,4.50
2023-01-05T11:28:39.614Z,3.92
2023-01-05T11:33:42.471Z,4.63
2023-01-05T11:38:45.444Z,5.53
2023-01-05T11:43:51.353Z,4.10
2023-01-05T11:48:56.522Z,4.13
2023-01-05T11:53:59.395Z,5.38
2023-01-05T11:59:03.600Z,4.35
2023-01-05T12:04:17.208Z,3.58
2023-01-05T12:09:32.700Z,3.50
2023-01-05T12:14:54.726Z,4.40
2023-01-05T12:20:09.453Z,4.43
2023-01-05T12:25:21.451Z,3.88
2023-01-05T12:36:22.856Z,4.38
2023-01-05T12:41:39.737Z,4.50
2023-01-05T12:47:00.656Z,4.68
2023-01-05T12:52:10.525Z,3.95
2023-01-05T12:57:17.797Z,5.47
2023-01-05T13:02:30.533Z,5.65
2023-01-05T13:12:39.425Z,5.80
2023-01-05T13:17:48.241Z,5.50
2023-01-05T13:22:55.260Z,4.40
2023-01-05T13:27:58.096Z,4.28
2023-01-05T13:33:29.090Z,5.45
2023-01-05T13:39:11.826Z,5.90
2023-01-05T13:44:41.592Z,6.30
2023-01-05T13:50:27.699Z,7.15
2023-01-05T13:55:33.571Z,5.95
2023-01-05T14:00:42.929Z,6.03
2023-01-05T14:05:51.853Z,6.05
2023-01-05T14:11:15.768Z,6.28
2023-01-05T14:16:52.218Z,6.50
2023-01-05T14:22:36.621Z,4.72
2023-01-05T14:28:18.343Z,6.15
2023-01-05T14:33:21.944Z,6.63
2023-01-05T14:38:26.419Z,6.10
2023-01-05T14:43:32.401Z,6.40
2023-01-05T14:48:43.577Z,6.03
2023-01-05T14:53:50.239Z,5.60
2023-01-05T14:59:07.168Z,7.55
2023-01-05T15:04:14.948Z,5.63
2023-01-05T15:09:38.239Z,6.32
2023-01-05T15:15:06.550Z,6.25
2023-01-05T15:20:54.766Z,5.03
2023-01-05T15:26:23.049Z,5.00
2023-01-05T15:31:38.000Z,5.25
2023-01-05T15:36:47.822Z,6.57
2023-01-05T15:41:52.645Z,6.75
2023-01-05T15:46:56.241Z,5.65
2023-01-05T15:51:59.325Z,4.75
2023-01-05T15:57:03.584Z,6.13
2023-01-05T16:02:17.425Z,5.40
2023-01-05T16:07:20.331Z,5.47
2023-01-05T16:12:26.448Z,7.00
2023-01-05T16:17:30.801Z,6.35
2023-01-05T16:22:42.702Z,7.07
2023-01-05T16:27:50.215Z,5.60
2023-01-05T16:32:57.558Z,5.22
2023-01-05T16:38:14.629Z,6.90
2023-01-05T16:43:23.693Z,5.65
2023-01-05T16:48:49.795Z,6.63
2023-01-05T16:53:59.618Z,6.80
2023-01-05T16:59:05.615Z,6.28
2023-01-05T17:04:12.861Z,5.65
2023-01-05T17:09:20.874Z,5.30
2023-01-05T17:14:27.211Z,5.80
2023-01-05T17:19:30.117Z,6.68
2023-01-05T17:24:33.941Z,5.82
2023-01-05T17:29:38.703Z,6.05
2023-01-05T17:34:42.385Z,5.97
2023-01-05T17:39:45.256Z,6.38
2023-01-05T17:44:49.478Z,6.72
2023-01-05T17:49:52.327Z,7.15
2023-01-05T17:54:55.140Z,6.88
2023-01-05T17:59:59.280Z,7.72
2023-01-05T18:05:02.077Z,7.75
2023-01-05T18:15:17.140Z,7.57
2023-01-05T18:20:21.460Z,8.32
2023-01-05T18:25:24.806Z,8.73
2023-01-05T18:30:29.389Z,8.80
2023-01-05T18:35:32.198Z,8.68
2023-01-05T18:40:35.119Z,7.65
2023-01-05T18:45:40.233Z,9.75
2023-01-05T18:50:49.880Z,9.20
2023-01-05T18:55:53.132Z,10.30
2023-01-05T19:00:57.281Z,10.02
2023-01-05T19:06:00.131Z,10.00
2023-01-05T19:11:11.708Z,9.18
2023-01-05T19:16:16.536Z,10.35
2023-01-05T19:21:20.102Z,9.95
2023-01-05T19:26:23.565Z,10.57
2023-01-05T19:31:29.220Z,11.23
2023-01-05T19:36:34.771Z,11.60
2023-01-05T19:41:39.744Z,13.45
2023-01-05T19:46:44.632Z,12.80
2023-01-05T19:51:47.927Z,13.35
2023-01-05T19:56:50.808Z,12.70
2023-01-05T20:01:56.193Z,11.23
2023-01-05T20:07:02.346Z,13.57
2023-01-05T20:12:14.484Z,11.63
2023-01-05T20:17:19.405Z,13.00
2023-01-05T20:22:22.655Z,14.90
2023-01-05T20:27:25.409Z,14.20
2023-01-05T20:32:29.857Z,12.45
2023-01-05T20:37:33.427Z,13.45
2023-01-05T20:42:37.130Z,14.30
2023-01-05T20:47:47.554Z,12.68
2023-01-05T20:52:50.913Z,11.15
2023-01-05T20:57:53.733Z,10.40
2023-01-05T21:02:57.962Z,12.07
2023-01-05T21:08:00.739Z,10.25
2023-01-05T21:13:31.891Z,11.85
2023-01-05T21:18:28.390Z,12.23
2023-01-05T21:23:31.209Z,11.80
2023-01-05T21:28:34.076Z,12.25
2023-01-05T21:33:40.244Z,12.88
2023-01-05T21:39:00.790Z,13.05
2023-01-05T21:44:07.362Z,10.73
2023-01-05T21:49:12.792Z,10.57
2023-01-05T21:54:33.431Z,11.15
2023-01-05T21:59:36.346Z,11.38
2023-01-05T22:04:40.517Z,13.07
2023-01-05T22:09:43.484Z,13.05
2023-01-05T22:14:46.610Z,11.95
2023-01-05T22:19:53.242Z,13.75
2023-01-05T22:24:56.123Z,13.02
2023-01-05T22:29:58.933Z,13.27
2023-01-05T22:35:03.238Z,13.63
2023-01-05T22:40:07.036Z,13.20
2023-01-05T22:45:10.508Z,15.27
2023-01-05T22:50:14.648Z,15.70
2023-01-05T22:55:17.586Z,15.38
2023-01-05T23:00:20.341Z,15.18
2023-01-05T23:05:24.529Z,15.25
2023-01-05T23:10:28.388Z,15.77
2023-01-05T23:15:31.143Z,11.68
2023-01-05T23:20:35.317Z,12.88
2023-01-05T23:25:38.094Z,11.73
2023-01-05T23:30:40.982Z,8.65
2023-01-05T23:35:45.941Z,11.38
2023-01-05T23:40:50.217Z,14.88
2023-01-05T23:45:59.879Z,12.60
2023-01-05T23:51:05.889Z,13.73
2023-01-05T23:56:11.314Z,13.07
